Time;durP1;ratioP1;P1;durP2;ratioP2;P2;SDS_P1;SDS_P2;PMS_P1;PMS_P2;Temp;Humidity;BMP_temperature;BMP_pressure;BME280_temperature;BME280_humidity;BME280_pressure;Samples;Min_cycle;Max_cycle;Signal;HPM_P1;HPM_P2
2022/12/08 00:00:46;;;;;;;22.43;17.00;;;5.50;99.90;;;;;;4994746;28;20556;-77
2022/12/08 00:03:12;;;;;;;19.63;16.00;;;5.60;99.90;;;;;;4994173;28;20938;-76
2022/12/08 00:11:12;;;;;;;25.40;17.30;;;5.60;99.90;;;;;;4994074;28;20418;-77
2022/12/08 00:13:39;;;;;;;22.93;18.63;;;5.60;99.90;;;;;;4993918;28;20477;-77
2022/12/08 00:16:08;;;;;;;25.13;19.27;;;5.70;99.90;;;;;;4994260;28;20455;-77
2022/12/08 00:18:35;;;;;;;25.50;18.97;;;5.60;99.90;;;;;;4994206;28;20476;-77
2022/12/08 00:21:02;;;;;;;22.80;19.20;;;5.60;99.90;;;;;;4994209;28;20912;-77
2022/12/08 00:23:29;;;;;;;29.20;19.97;;;5.60;99.90;;;;;;4993791;28;21022;-77
2022/12/08 00:25:55;;;;;;;25.37;19.60;;;5.60;99.90;;;;;;4993800;28;20494;-77
2022/12/08 00:28:22;;;;;;;29.30;20.73;;;5.60;99.90;;;;;;4994240;28;20449;-78
2022/12/08 00:30:49;;;;;;;26.43;19.90;;;5.50;99.90;;;;;;4994266;28;20457;-77
2022/12/08 00:33:17;;;;;;;25.80;20.27;;;5.50;99.90;;;;;;4993672;28;20954;-77
2022/12/08 00:35:43;;;;;;;28.53;20.57;;;5.50;99.90;;;;;;4994142;28;20454;-77
2022/12/08 00:38:10;;;;;;;28.50;20.30;;;5.40;99.90;;;;;;4994133;28;20463;-78
2022/12/08 00:40:37;;;;;;;29.70;20.37;;;5.40;99.90;;;;;;4994377;28;20957;-77
2022/12/08 00:43:03;;;;;;;30.40;21.23;;;5.40;99.90;;;;;;4994300;28;20453;-77
2022/12/08 00:45:30;;;;;;;29.03;21.93;;;5.40;99.90;;;;;;4993160;28;20488;-77
2022/12/08 00:47:57;;;;;;;30.23;21.60;;;5.40;99.90;;;;;;4993653;28;20942;-77
2022/12/08 00:50:25;;;;;;;30.47;22.17;;;5.40;99.90;;;;;;4994159;28;20473;-77
2022/12/08 00:52:51;;;;;;;29.00;20.17;;;5.40;99.90;;;;;;4994586;28;20790;-77
2022/12/08 00:55:18;;;;;;;28.93;20.30;;;5.40;99.90;;;;;;4995347;28;20491;-77
2022/12/08 00:57:45;;;;;;;32.80;22.60;;;5.40;99.90;;;;;;4998084;28;20470;-77
2022/12/08 01:00:12;;;;;;;30.83;22.87;;;5.40;99.90;;;;;;4998400;28;20445;-77
2022/12/08 01:02:39;;;;;;;31.73;22.77;;;5.40;99.90;;;;;;4997713;28;20547;-77
2022/12/08 01:05:06;;;;;;;39.73;25.10;;;5.40;99.90;;;;;;4997732;28;20516;-77
2022/12/08 01:07:34;;;;;;;39.13;24.60;;;5.30;99.90;;;;;;4997794;28;20459;-77
2022/12/08 01:10:01;;;;;;;35.47;26.77;;;5.40;99.90;;;;;;4997702;28;20864;-77
2022/12/08 01:12:29;;;;;;;38.43;26.10;;;5.40;99.90;;;;;;4998055;28;20856;-77
2022/12/08 01:14:56;;;;;;;34.83;25.07;;;5.50;99.90;;;;;;4997585;28;20498;-77
2022/12/08 01:17:22;;;;;;;34.00;24.63;;;5.50;99.90;;;;;;4997243;28;20827;-77
2022/12/08 01:19:49;;;;;;;32.50;24.73;;;5.50;99.90;;;;;;4997681;28;20457;-77
2022/12/08 01:22:16;;;;;;;33.67;25.77;;;5.50;99.90;;;;;;4997438;28;20450;-77
2022/12/08 01:24:44;;;;;;;39.40;24.43;;;5.50;99.90;;;;;;4997430;28;20496;-77
2022/12/08 01:27:11;;;;;;;35.23;26.47;;;5.50;99.90;;;;;;4997038;28;20469;-77
2022/12/08 01:29:37;;;;;;;38.63;25.60;;;5.60;99.90;;;;;;4997368;28;20477;-77
2022/12/08 01:32:04;;;;;;;35.03;23.50;;;5.50;99.90;;;;;;4997291;28;20459;-77
2022/12/08 01:34:31;;;;;;;33.07;24.00;;;5.60;99.90;;;;;;4997165;28;20592;-77
2022/12/08 01:36:58;;;;;;;33.80;23.70;;;5.50;99.90;;;;;;4997168;28;20451;-78
2022/12/08 01:39:25;;;;;;;38.20;26.77;;;5.50;99.90;;;;;;4996740;28;20947;-78
2022/12/08 01:41:53;;;;;;;32.60;24.27;;;5.60;99.90;;;;;;4997528;28;20459;-78
2022/12/08 01:44:58;;;;;;;32.90;23.23;;;5.60;99.90;;;;;;4996828;28;20490;-77
2022/12/08 01:47:33;;;;;;;31.50;22.70;;;5.60;99.90;;;;;;4997047;28;20446;-77
2022/12/08 01:49:59;;;;;;;35.50;26.37;;;5.60;99.90;;;;;;4996998;28;20424;-77
2022/12/08 01:52:32;;;;;;;32.27;24.20;;;5.70;99.90;;;;;;4996638;28;20433;-77
2022/12/08 01:55:03;;;;;;;30.57;22.47;;;5.70;99.90;;;;;;4996742;28;20477;-77
2022/12/08 01:57:37;;;;;;;28.20;22.70;;;5.70;99.90;;;;;;4997654;28;20778;-77
2022/12/08 02:00:08;;;;;;;34.40;26.57;;;5.70;99.90;;;;;;5012011;28;20449;-77
2022/12/08 02:02:43;;;;;;;31.57;23.27;;;5.70;99.90;;;;;;5009054;28;20457;-77
2022/12/08 02:05:11;;;;;;;35.30;23.47;;;5.70;99.90;;;;;;4997323;28;20499;-77
2022/12/08 02:07:39;;;;;;;35.27;25.13;;;5.70;99.90;;;;;;4996095;28;20964;-77
2022/12/08 02:10:07;;;;;;;37.17;24.30;;;5.70;99.90;;;;;;4996830;28;20435;-77
2022/12/08 02:12:35;;;;;;;30.93;23.70;;;5.80;99.90;;;;;;4996164;28;20956;-77
2022/12/08 02:15:02;;;;;;;28.30;20.50;;;5.80;99.90;;;;;;4996224;28;21018;-77
2022/12/08 02:17:42;;;;;;;27.87;21.70;;;5.80;99.90;;;;;;4996322;28;20962;-77
2022/12/08 02:20:35;;;;;;;28.60;20.20;;;5.70;99.90;;;;;;4996977;28;20532;-78
2022/12/08 02:23:11;;;;;;;26.87;18.00;;;5.70;99.90;;;;;;4994565;28;20467;-76
2022/12/08 02:25:54;;;;;;;25.67;18.87;;;5.70;99.90;;;;;;4995872;28;20517;-75
2022/12/08 02:28:55;;;;;;;25.80;17.13;;;5.70;99.90;;;;;;4996318;28;20502;-75
2022/12/08 02:31:32;;;;;;;21.73;17.23;;;5.70;99.90;;;;;;4996373;28;20433;-77
2022/12/08 02:34:10;;;;;;;24.90;17.47;;;5.60;99.90;;;;;;4995921;28;21006;-77
2022/12/08 02:36:44;;;;;;;25.77;15.67;;;5.60;99.90;;;;;;4996098;28;20444;-76
2022/12/08 02:39:23;;;;;;;26.17;16.90;;;5.60;99.90;;;;;;4995980;28;20448;-77
2022/12/08 02:41:58;;;;;;;18.70;14.43;;;5.60;99.90;;;;;;4995931;28;20443;-76
2022/12/08 02:44:31;;;;;;;20.63;16.53;;;5.60;99.90;;;;;;4995922;28;20471;-77
2022/12/08 02:47:03;;;;;;;17.60;15.37;;;5.70;99.90;;;;;;4995923;28;20439;-76
2022/12/08 02:49:32;;;;;;;22.43;15.23;;;5.70;99.90;;;;;;4995623;28;20466;-76
2022/12/08 02:52:41;;;;;;;21.90;15.73;;;5.60;99.90;;;;;;4996007;28;20875;-78
2022/12/08 02:55:13;;;;;;;20.07;15.27;;;5.60;99.90;;;;;;4996712;28;20475;-78
2022/12/08 02:57:52;;;;;;;18.77;14.73;;;5.60;99.90;;;;;;4997011;28;20428;-77
2022/12/08 03:00:20;;;;;;;18.77;14.27;;;5.50;99.90;;;;;;4996433;28;20458;-77
2022/12/08 03:02:58;;;;;;;21.10;15.37;;;5.60;99.90;;;;;;4996126;28;20451;-78
2022/12/08 03:05:42;;;;;;;17.37;12.03;;;5.60;99.90;;;;;;4996223;28;20957;-77
2022/12/08 03:08:14;;;;;;;15.30;12.77;;;5.60;99.90;;;;;;4996045;28;20908;-77
2022/12/08 03:10:46;;;;;;;18.20;14.00;;;5.50;99.90;;;;;;4995529;28;20512;-77
2022/12/08 03:13:16;;;;;;;18.50;13.50;;;5.60;99.90;;;;;;5000820;28;20876;-77
2022/12/08 03:15:45;;;;;;;17.10;14.00;;;5.60;99.90;;;;;;5006286;28;20462;-77
2022/12/08 03:18:16;;;;;;;16.30;14.50;;;5.60;99.90;;;;;;4994733;28;20458;-77
2022/12/08 03:20:47;;;;;;;17.47;14.50;;;5.60;99.90;;;;;;4995410;28;20425;-77
2022/12/08 03:23:15;;;;;;;16.87;14.50;;;5.60;99.90;;;;;;4995253;28;20805;-77
2022/12/08 03:25:48;;;;;;;17.60;14.30;;;5.70;99.90;;;;;;4995162;28;20557;-77
2022/12/08 03:28:15;;;;;;;16.43;13.90;;;5.70;99.90;;;;;;4994923;28;20454;-77
2022/12/08 03:30:47;;;;;;;18.03;14.37;;;5.70;99.90;;;;;;4995938;28;20477;-78
2022/12/08 03:33:17;;;;;;;18.10;13.93;;;5.70;99.90;;;;;;4997337;28;20471;-78
2022/12/08 03:35:46;;;;;;;15.73;14.03;;;5.80;99.90;;;;;;4997580;28;20448;-77
2022/12/08 03:38:16;;;;;;;18.73;13.97;;;5.80;99.90;;;;;;4997256;28;20492;-78
2022/12/08 03:41:16;;;;;;;23.53;15.07;;;5.70;99.90;;;;;;4997340;28;20790;-78
2022/12/08 03:43:30;;;;;;;18.37;13.87;;;5.70;99.90;;;;;;4996597;28;20991;-78
2022/12/08 03:45:57;;;;;;;15.77;12.77;;;5.70;99.90;;;;;;4996725;28;20482;-78
2022/12/08 03:48:23;;;;;;;21.20;13.33;;;5.70;99.90;;;;;;4996704;28;20452;-78
2022/12/08 03:50:52;;;;;;;20.50;13.60;;;5.70;99.90;;;;;;4997258;28;20435;-78
2022/12/08 03:53:18;;;;;;;18.47;13.47;;;5.70;99.90;;;;;;4996984;28;20466;-78
2022/12/08 03:55:45;;;;;;;16.43;12.80;;;5.70;99.90;;;;;;5011680;28;20476;-77
2022/12/08 03:58:12;;;;;;;17.17;13.73;;;5.60;99.90;;;;;;5016870;28;20453;-78
2022/12/08 04:00:38;;;;;;;18.17;13.77;;;5.60;99.90;;;;;;5016874;28;20456;-78
2022/12/08 04:03:05;;;;;;;23.80;15.63;;;5.70;99.90;;;;;;5016565;28;20453;-77
2022/12/08 04:05:32;;;;;;;20.10;12.53;;;5.60;99.90;;;;;;5016372;28;20538;-78
2022/12/08 04:08:00;;;;;;;19.07;13.23;;;5.60;99.90;;;;;;5017099;28;20425;-79
2022/12/08 04:10:28;;;;;;;19.70;14.40;;;5.70;99.90;;;;;;5016806;28;20482;-78
2022/12/08 04:12:56;;;;;;;15.70;13.03;;;5.70;99.90;;;;;;5016807;28;20434;-77
2022/12/08 04:15:23;;;;;;;15.10;13.10;;;5.70;99.90;;;;;;5016546;28;20480;-78
2022/12/08 04:17:50;;;;;;;16.00;12.80;;;5.70;99.90;;;;;;5013956;28;20437;-77
2022/12/08 04:20:16;;;;;;;17.80;13.27;;;5.70;99.90;;;;;;5014043;28;20459;-77
2022/12/08 04:22:43;;;;;;;18.07;14.70;;;5.70;99.90;;;;;;5005296;28;20471;-77
2022/12/08 04:25:11;;;;;;;17.90;15.27;;;5.70;99.90;;;;;;4993913;28;20471;-76
2022/12/08 04:27:38;;;;;;;21.33;16.00;;;5.70;99.90;;;;;;4994029;28;20844;-77
2022/12/08 04:30:06;;;;;;;18.07;14.20;;;5.70;99.90;;;;;;4994319;28;20455;-78
2022/12/08 04:32:33;;;;;;;21.03;14.77;;;5.80;99.90;;;;;;4994221;28;20432;-77
2022/12/08 04:34:59;;;;;;;18.60;13.37;;;5.80;99.90;;;;;;4994028;28;20838;-77
2022/12/08 04:37:28;;;;;;;20.30;14.43;;;5.70;99.90;;;;;;4994200;28;20523;-77
2022/12/08 04:39:57;;;;;;;20.27;14.50;;;5.70;99.90;;;;;;4994460;28;20835;-76
2022/12/08 04:42:25;;;;;;;21.80;16.13;;;5.70;99.90;;;;;;4993801;28;20471;-77
2022/12/08 04:44:51;;;;;;;23.87;15.27;;;5.70;99.90;;;;;;4993905;28;20475;-77
2022/12/08 04:47:19;;;;;;;24.60;15.67;;;5.60;99.90;;;;;;4993645;28;20489;-77
2022/12/08 04:49:46;;;;;;;24.10;17.77;;;5.60;99.90;;;;;;4993839;28;20457;-76
2022/12/08 04:52:13;;;;;;;28.03;18.63;;;5.60;99.90;;;;;;4993905;28;20457;-77
2022/12/08 04:54:39;;;;;;;24.67;17.63;;;5.60;99.90;;;;;;4993973;28;20470;-76
2022/12/08 04:57:06;;;;;;;30.20;20.90;;;5.60;99.90;;;;;;4994541;28;20452;-77
2022/12/08 04:59:34;;;;;;;33.90;22.07;;;5.60;99.90;;;;;;4994221;28;20481;-76
2022/12/08 05:02:01;;;;;;;33.23;19.87;;;5.60;99.90;;;;;;4994041;28;20465;-76
2022/12/08 05:04:27;;;;;;;34.23;23.10;;;5.50;99.90;;;;;;4994380;28;20465;-76
2022/12/08 05:06:54;;;;;;;39.47;25.17;;;5.50;99.90;;;;;;4994762;28;20840;-77
2022/12/08 05:09:21;;;;;;;35.40;24.27;;;5.40;99.90;;;;;;4994283;28;20442;-76
2022/12/08 05:11:48;;;;;;;40.47;25.30;;;5.40;99.90;;;;;;4994341;28;20462;-77
2022/12/08 05:14:17;;;;;;;33.37;23.53;;;5.40;99.90;;;;;;4994115;28;20474;-76
2022/12/08 05:16:45;;;;;;;42.33;24.50;;;5.50;99.90;;;;;;4993855;28;20956;-76
2022/12/08 05:19:12;;;;;;;38.20;23.70;;;5.40;99.90;;;;;;4994161;28;20453;-77
2022/12/08 05:21:40;;;;;;;37.73;24.57;;;5.40;99.90;;;;;;4994169;28;20437;-77
2022/12/08 05:24:08;;;;;;;38.47;23.73;;;5.40;99.90;;;;;;4993926;28;20959;-77
2022/12/08 05:26:35;;;;;;;32.13;23.10;;;5.30;99.90;;;;;;4993522;28;20494;-77
2022/12/08 05:29:02;;;;;;;37.13;23.77;;;5.40;99.90;;;;;;4994039;28;20453;-77
2022/12/08 05:31:29;;;;;;;31.60;23.07;;;5.40;99.90;;;;;;4994775;28;20459;-77
2022/12/08 05:33:57;;;;;;;30.40;21.90;;;5.30;99.90;;;;;;4993952;28;20480;-77
2022/12/08 05:36:23;;;;;;;29.40;21.80;;;5.30;99.90;;;;;;4993337;28;20926;-77
2022/12/08 05:38:50;;;;;;;30.50;21.50;;;5.30;99.90;;;;;;4993712;28;20456;-77
2022/12/08 05:41:20;;;;;;;33.13;21.67;;;5.30;99.90;;;;;;4994301;28;20450;-76
2022/12/08 05:43:48;;;;;;;31.00;21.77;;;5.20;99.90;;;;;;4996655;28;21002;-76
2022/12/08 05:46:15;;;;;;;33.17;22.70;;;5.30;99.90;;;;;;4996417;28;20473;-76
2022/12/08 05:48:42;;;;;;;31.33;22.13;;;5.30;99.90;;;;;;4996999;28;20468;-77
2022/12/08 05:51:17;;;;;;;22.97;18.00;;;5.30;99.90;;;;;;4996842;28;20475;-77
2022/12/08 05:53:43;;;;;;;25.70;17.07;;;5.30;99.90;;;;;;4996575;28;20988;-77
2022/12/08 05:56:10;;;;;;;27.83;18.83;;;5.20;99.90;;;;;;4996764;28;20450;-77
2022/12/08 05:58:37;;;;;;;29.70;19.47;;;5.20;99.90;;;;;;4996656;28;20456;-77
2022/12/08 06:01:04;;;;;;;33.53;21.47;;;5.20;99.90;;;;;;4996674;28;20449;-77
2022/12/08 06:03:30;;;;;;;28.63;21.10;;;5.10;99.90;;;;;;4996632;28;20901;-77
2022/12/08 06:05:57;;;;;;;26.40;18.93;;;5.20;99.90;;;;;;4996511;28;20486;-77
2022/12/08 06:08:25;;;;;;;30.13;20.50;;;5.10;99.90;;;;;;4996715;28;20471;-77
2022/12/08 06:10:52;;;;;;;32.90;22.20;;;5.00;99.90;;;;;;4996583;28;20793;-77
2022/12/08 06:13:19;;;;;;;32.97;22.90;;;5.10;99.90;;;;;;4996186;28;20951;-76
2022/12/08 06:15:45;;;;;;;38.40;22.50;;;5.10;99.90;;;;;;4996432;28;20481;-77
2022/12/08 06:18:12;;;;;;;28.20;19.97;;;5.10;99.90;;;;;;4996403;28;20457;-77
2022/12/08 06:20:39;;;;;;;30.90;21.43;;;5.10;99.90;;;;;;4996893;28;20438;-77
2022/12/08 06:23:05;;;;;;;30.57;21.10;;;5.20;99.90;;;;;;4996284;28;20457;-77
2022/12/08 06:25:33;;;;;;;26.90;19.67;;;5.20;99.90;;;;;;4996099;28;20476;-77
2022/12/08 06:28:00;;;;;;;32.13;22.03;;;5.20;99.90;;;;;;4996280;28;20453;-77
2022/12/08 06:30:27;;;;;;;26.63;20.60;;;5.20;99.90;;;;;;4996211;28;20450;-77
2022/12/08 06:32:54;;;;;;;32.50;21.00;;;5.30;99.90;;;;;;4996082;28;20453;-77
2022/12/08 06:35:20;;;;;;;30.23;20.73;;;5.20;99.90;;;;;;4996069;28;20470;-77
2022/12/08 06:37:47;;;;;;;31.33;20.97;;;5.20;99.90;;;;;;4996072;28;20449;-77
2022/12/08 06:40:14;;;;;;;35.43;22.97;;;5.20;99.90;;;;;;4995976;28;20453;-77
2022/12/08 06:42:43;;;;;;;31.40;21.50;;;5.30;99.90;;;;;;4995903;28;20461;-77
2022/12/08 06:45:11;;;;;;;29.30;21.00;;;5.20;99.90;;;;;;4995795;28;20841;-77
2022/12/08 06:47:37;;;;;;;29.27;20.13;;;5.20;99.90;;;;;;4995459;28;20856;-78
2022/12/08 06:50:05;;;;;;;35.23;21.63;;;5.20;99.90;;;;;;4995875;28;20433;-78
2022/12/08 06:52:32;;;;;;;36.77;24.40;;;5.10;99.90;;;;;;4995533;28;20454;-78
2022/12/08 06:54:59;;;;;;;31.50;22.03;;;5.20;99.90;;;;;;4995129;28;20494;-77
2022/12/08 06:57:25;;;;;;;29.50;21.53;;;5.20;99.90;;;;;;4996044;28;20473;-77
2022/12/08 06:59:53;;;;;;;33.67;22.70;;;5.20;99.90;;;;;;4995545;28;20469;-77
2022/12/08 07:02:20;;;;;;;36.10;22.73;;;5.20;99.90;;;;;;4996449;28;20451;-78
2022/12/08 07:04:47;;;;;;;31.20;21.67;;;5.20;99.90;;;;;;4995974;28;20474;-77
2022/12/08 07:07:13;;;;;;;32.60;22.53;;;5.20;99.90;;;;;;4995568;28;21009;-77
2022/12/08 07:09:40;;;;;;;34.60;20.80;;;5.20;99.90;;;;;;4996042;28;20798;-77
2022/12/08 07:12:07;;;;;;;26.30;17.93;;;5.20;99.90;;;;;;4996828;28;20452;-78
2022/12/08 07:14:34;;;;;;;24.27;18.60;;;5.20;99.90;;;;;;4996647;28;20805;-78
2022/12/08 07:17:02;;;;;;;22.50;15.57;;;5.10;99.90;;;;;;4996235;28;20518;-77
2022/12/08 07:19:29;;;;;;;28.90;17.07;;;5.10;99.90;;;;;;4995875;28;20459;-77
2022/12/08 07:21:55;;;;;;;26.97;17.57;;;5.00;99.90;;;;;;4996056;28;20437;-77
2022/12/08 07:24:22;;;;;;;28.27;18.83;;;5.10;99.90;;;;;;4995950;28;20483;-76
2022/12/08 07:26:49;;;;;;;27.37;19.17;;;5.10;99.90;;;;;;4995590;28;20489;-77
2022/12/08 07:29:15;;;;;;;25.17;18.37;;;5.10;99.90;;;;;;4995881;28;20459;-77
2022/12/08 07:31:42;;;;;;;28.53;17.77;;;5.10;99.90;;;;;;4995787;28;20475;-77
2022/12/08 07:34:12;;;;;;;26.93;17.00;;;5.10;99.90;;;;;;4995318;28;20820;-76
2022/12/08 07:36:39;;;;;;;25.50;18.40;;;5.10;99.90;;;;;;4995227;28;20973;-77
2022/12/08 07:39:06;;;;;;;26.77;18.63;;;5.10;99.90;;;;;;4995664;28;20816;-77
2022/12/08 07:41:33;;;;;;;24.23;17.60;;;5.10;99.90;;;;;;4995229;28;20459;-77
2022/12/08 07:44:00;;;;;;;28.20;18.80;;;5.10;99.90;;;;;;4995209;28;20487;-77
2022/12/08 07:46:27;;;;;;;29.87;19.00;;;5.00;99.90;;;;;;4995278;28;20489;-77
2022/12/08 07:48:54;;;;;;;27.47;18.87;;;5.10;99.90;;;;;;4995143;28;20436;-77
2022/12/08 07:51:24;;;;;;;30.90;19.70;;;5.10;99.90;;;;;;4994818;28;20455;-76
2022/12/08 07:53:51;;;;;;;31.60;19.83;;;5.10;99.90;;;;;;4994802;28;20477;-77
2022/12/08 07:56:18;;;;;;;30.07;20.40;;;5.10;99.90;;;;;;4995189;28;20938;-77
2022/12/08 07:58:45;;;;;;;30.43;21.50;;;5.10;99.90;;;;;;4995225;28;20463;-76
2022/12/08 08:01:21;;;;;;;31.90;20.60;;;5.10;99.90;;;;;;4995338;28;20512;-77
2022/12/08 08:03:47;;;;;;;30.63;21.77;;;5.10;99.90;;;;;;4994694;28;20616;-76
2022/12/08 08:06:14;;;;;;;34.60;21.27;;;5.00;99.90;;;;;;4994798;28;20466;-77
2022/12/08 08:08:42;;;;;;;37.80;23.90;;;5.00;99.90;;;;;;4994549;28;20455;-77
2022/12/08 08:11:09;;;;;;;42.23;22.67;;;5.00;99.90;;;;;;4994454;28;20437;-77
2022/12/08 08:13:36;;;;;;;31.77;21.47;;;5.10;99.90;;;;;;4994372;28;20496;-76
2022/12/08 08:16:04;;;;;;;35.47;22.57;;;5.10;99.90;;;;;;4994475;28;20454;-76
2022/12/08 08:18:31;;;;;;;36.03;21.53;;;5.10;99.90;;;;;;4994078;28;20481;-76
2022/12/08 08:20:58;;;;;;;34.80;22.23;;;5.10;99.90;;;;;;4994053;28;20946;-76
2022/12/08 08:23:24;;;;;;;32.50;21.13;;;5.10;99.90;;;;;;4994262;28;20447;-76
2022/12/08 08:25:52;;;;;;;30.50;20.90;;;5.10;99.90;;;;;;4994233;28;20481;-77
2022/12/08 08:28:19;;;;;;;30.37;20.53;;;5.10;99.90;;;;;;4994169;28;20484;-76
2022/12/08 08:30:47;;;;;;;32.37;18.60;;;5.10;99.90;;;;;;4994204;28;20445;-77
2022/12/08 08:33:13;;;;;;;30.00;17.90;;;5.10;99.90;;;;;;4994098;28;20820;-77
2022/12/08 08:35:41;;;;;;;29.40;18.57;;;5.10;99.90;;;;;;4993936;28;20920;-77
2022/12/08 08:38:07;;;;;;;29.23;19.47;;;5.10;99.90;;;;;;4994120;28;20445;-77
2022/12/08 08:40:34;;;;;;;26.83;16.30;;;5.20;99.90;;;;;;4994141;28;20453;-77
2022/12/08 08:43:04;;;;;;;26.43;18.67;;;5.20;99.90;;;;;;4993958;28;20457;-77
2022/12/08 08:45:31;;;;;;;27.13;18.17;;;5.10;99.90;;;;;;4993982;28;20469;-77
2022/12/08 08:47:58;;;;;;;26.13;18.20;;;5.20;99.90;;;;;;4994946;28;20481;-77
2022/12/08 08:50:25;;;;;;;27.77;18.10;;;5.30;99.90;;;;;;4994827;28;20450;-77
2022/12/08 08:52:52;;;;;;;25.43;17.70;;;5.20;99.90;;;;;;4994269;28;20452;-77
2022/12/08 08:55:19;;;;;;;26.83;15.63;;;5.30;99.90;;;;;;4993604;28;20991;-77
2022/12/08 08:57:45;;;;;;;20.30;15.07;;;5.20;99.90;;;;;;4994081;28;20815;-77
2022/12/08 09:00:15;;;;;;;23.33;15.83;;;5.30;99.90;;;;;;4993975;28;20463;-77
2022/12/08 09:02:41;;;;;;;22.30;15.93;;;5.30;99.90;;;;;;4993886;28;20449;-77
2022/12/08 09:05:09;;;;;;;23.10;14.90;;;5.20;99.90;;;;;;4993799;28;20469;-77
2022/12/08 09:07:35;;;;;;;22.80;14.27;;;5.20;99.90;;;;;;4993616;28;20488;-77
2022/12/08 09:10:02;;;;;;;27.23;15.50;;;5.20;99.90;;;;;;4994185;28;20464;-77
2022/12/08 09:12:29;;;;;;;23.13;16.03;;;5.10;99.90;;;;;;4993776;28;20450;-77
2022/12/08 09:14:55;;;;;;;22.53;15.17;;;5.20;99.90;;;;;;4993798;28;20469;-77
2022/12/08 09:17:23;;;;;;;20.93;15.77;;;5.20;99.90;;;;;;4996198;28;20937;-76
2022/12/08 09:19:50;;;;;;;22.80;14.60;;;5.10;99.90;;;;;;4997633;28;20433;-77
2022/12/08 09:22:17;;;;;;;19.17;13.77;;;5.10;99.90;;;;;;4997185;28;20448;-77
2022/12/08 09:24:43;;;;;;;18.70;13.60;;;5.10;99.90;;;;;;4997378;28;20471;-77
2022/12/08 09:27:10;;;;;;;17.57;12.80;;;5.10;99.90;;;;;;4997302;28;20487;-77
2022/12/08 09:29:37;;;;;;;17.47;12.23;;;5.20;99.90;;;;;;4998203;28;20749;-77
2022/12/08 09:32:06;;;;;;;16.70;10.90;;;5.10;99.90;;;;;;4997257;28;20465;-77
2022/12/08 09:34:34;;;;;;;14.10;9.90;;;5.10;99.90;;;;;;4996963;28;20572;-76
2022/12/08 09:37:00;;;;;;;18.63;10.40;;;5.10;99.90;;;;;;4997213;28;20427;-77
2022/12/08 09:39:27;;;;;;;13.17;10.07;;;5.10;99.90;;;;;;4997190;28;20457;-77
2022/12/08 09:41:59;;;;;;;13.27;9.77;;;5.10;99.90;;;;;;4997060;28;20456;-77
2022/12/08 09:44:45;;;;;;;13.00;10.37;;;5.00;99.90;;;;;;4997176;28;20475;-76
2022/12/08 09:47:19;;;;;;;22.37;11.10;;;5.00;99.90;;;;;;4996982;28;20479;-77
2022/12/08 09:49:52;;;;;;;16.77;11.33;;;5.10;99.90;;;;;;4997130;28;20429;-77
2022/12/08 09:52:25;;;;;;;18.30;13.10;;;5.10;99.90;;;;;;4996930;28;20464;-77
2022/12/08 09:54:52;;;;;;;18.77;12.83;;;5.10;99.90;;;;;;4996552;28;20493;-77
2022/12/08 09:57:22;;;;;;;19.73;14.13;;;5.20;99.90;;;;;;4996494;28;20451;-76
2022/12/08 09:59:53;;;;;;;19.80;13.70;;;5.20;99.90;;;;;;4996835;28;20966;-76
2022/12/08 10:02:23;;;;;;;23.53;13.03;;;5.20;99.90;;;;;;4996755;28;20560;-77
2022/12/08 10:04:54;;;;;;;23.70;15.03;;;5.20;99.90;;;;;;4996710;28;20477;-77
2022/12/08 10:07:26;;;;;;;28.43;15.80;;;5.20;99.90;;;;;;4997049;28;21005;-77
2022/12/08 10:10:00;;;;;;;20.00;14.20;;;5.30;99.90;;;;;;4996304;28;20927;-77
2022/12/08 10:12:33;;;;;;;26.17;14.47;;;5.30;99.90;;;;;;4996808;28;20433;-76
2022/12/08 10:15:10;;;;;;;22.53;13.70;;;5.50;99.90;;;;;;4996275;28;20473;-76
2022/12/08 10:17:41;;;;;;;23.90;14.13;;;5.50;99.90;;;;;;4996533;28;20430;-76
2022/12/08 10:20:15;;;;;;;17.93;13.63;;;5.60;99.90;;;;;;4996525;28;20442;-76
2022/12/08 10:22:43;;;;;;;22.73;14.97;;;5.70;99.90;;;;;;4996355;28;20434;-75
2022/12/08 10:25:16;;;;;;;21.53;14.50;;;5.70;99.90;;;;;;4996640;28;20486;-76
2022/12/08 10:27:43;;;;;;;17.97;12.43;;;5.70;99.90;;;;;;4996159;28;20966;-76
2022/12/08 10:30:12;;;;;;;22.20;13.20;;;5.80;99.90;;;;;;4996415;28;20439;-76
2022/12/08 10:32:42;;;;;;;19.40;13.83;;;5.90;99.90;;;;;;4996168;28;20454;-76
2022/12/08 10:35:12;;;;;;;17.50;11.10;;;5.90;99.90;;;;;;4996177;28;20466;-76
2022/12/08 10:37:39;;;;;;;20.07;11.83;;;5.90;99.90;;;;;;4996114;28;20471;-76
2022/12/08 10:40:11;;;;;;;19.23;11.43;;;5.90;99.90;;;;;;4996156;28;20437;-75
2022/12/08 10:42:40;;;;;;;19.27;10.60;;;6.00;99.90;;;;;;4995776;28;20961;-75
2022/12/08 10:45:26;;;;;;;15.60;10.73;;;6.00;99.90;;;;;;4995715;28;20815;-76
2022/12/08 10:48:00;;;;;;;18.23;11.77;;;6.00;99.90;;;;;;4995488;28;20989;-76
2022/12/08 10:50:41;;;;;;;16.30;10.60;;;5.90;99.90;;;;;;4996041;28;20436;-76
2022/12/08 10:53:13;;;;;;;19.43;12.23;;;5.90;99.90;;;;;;4995892;28;20466;-76
2022/12/08 10:55:43;;;;;;;15.73;10.47;;;5.90;99.90;;;;;;4995782;28;20441;-76
2022/12/08 10:58:27;;;;;;;20.33;11.57;;;5.80;99.90;;;;;;4995981;28;20550;-77
2022/12/08 11:00:56;;;;;;;15.33;11.20;;;6.00;99.90;;;;;;4995626;28;20832;-75
2022/12/08 11:03:27;;;;;;;18.90;13.30;;;6.10;99.90;;;;;;4995508;28;20479;-76
2022/12/08 11:05:58;;;;;;;17.93;11.23;;;6.20;99.90;;;;;;4996427;28;20467;-76
2022/12/08 11:08:26;;;;;;;16.37;11.27;;;6.20;99.90;;;;;;4997443;28;20971;-76
2022/12/08 11:10:53;;;;;;;19.10;12.43;;;6.30;99.90;;;;;;4997857;28;20435;-76
2022/12/08 11:13:22;;;;;;;16.53;11.13;;;6.30;99.90;;;;;;4997742;28;20536;-75
2022/12/08 11:15:51;;;;;;;19.03;12.10;;;6.30;99.90;;;;;;4996701;28;20467;-76
2022/12/08 11:18:25;;;;;;;14.47;11.63;;;6.30;99.90;;;;;;4996922;28;20421;-77
2022/12/08 11:21:06;;;;;;;17.30;11.70;;;6.20;99.90;;;;;;4997182;28;20432;-77
2022/12/08 11:23:37;;;;;;;19.17;11.10;;;6.30;99.90;;;;;;4996672;28;20474;-77
2022/12/08 11:26:12;;;;;;;17.40;11.40;;;6.40;99.90;;;;;;4996200;28;20467;-77
2022/12/08 11:28:39;;;;;;;17.63;10.73;;;6.50;99.90;;;;;;4996104;28;20466;-77
2022/12/08 11:31:17;;;;;;;15.27;11.03;;;6.50;99.70;;;;;;4995761;28;20549;-77
2022/12/08 11:33:45;;;;;;;20.07;11.77;;;6.50;99.60;;;;;;4995335;28;21013;-76
2022/12/08 11:36:15;;;;;;;14.83;10.77;;;6.50;99.20;;;;;;4995726;28;20461;-77
2022/12/08 11:38:46;;;;;;;18.70;11.03;;;6.50;99.00;;;;;;4995448;28;20451;-76
2022/12/08 11:41:17;;;;;;;17.13;11.60;;;6.60;99.40;;;;;;4995587;28;20553;-76
2022/12/08 11:43:50;;;;;;;18.40;12.60;;;6.60;99.10;;;;;;4995659;28;20533;-76
2022/12/08 11:46:21;;;;;;;19.70;11.43;;;6.70;99.30;;;;;;4996737;28;20471;-76
2022/12/08 11:48:53;;;;;;;17.77;10.57;;;6.80;99.30;;;;;;4996029;28;20498;-76
2022/12/08 11:51:31;;;;;;;19.40;12.03;;;6.90;98.10;;;;;;4995735;28;20460;-76
2022/12/08 11:54:13;;;;;;;15.87;10.93;;;6.90;98.00;;;;;;4995114;28;21004;-76
2022/12/08 11:56:44;;;;;;;13.83;10.83;;;7.10;98.60;;;;;;4994973;28;20831;-76
2022/12/08 11:59:18;;;;;;;19.30;10.90;;;7.20;97.90;;;;;;4994920;28;20939;-76
2022/12/08 12:01:45;;;;;;;18.40;12.07;;;7.20;97.60;;;;;;5013159;28;20463;-76
2022/12/08 12:04:20;;;;;;;16.47;10.37;;;7.30;97.20;;;;;;5014517;28;20854;-76
2022/12/08 12:07:25;;;;;;;15.10;10.37;;;7.40;97.20;;;;;;5014098;28;20431;-76
2022/12/08 12:10:07;;;;;;;18.63;10.30;;;7.60;97.20;;;;;;5014353;28;20862;-76
2022/12/08 12:12:51;;;;;;;17.70;11.30;;;7.60;96.20;;;;;;5010747;28;20858;-76
2022/12/08 12:15:55;;;;;;;16.87;10.30;;;7.60;96.40;;;;;;5001493;28;20487;-76
2022/12/08 12:18:26;;;;;;;15.13;9.67;;;7.70;96.30;;;;;;5014338;28;20435;-76
2022/12/08 12:20:57;;;;;;;21.30;10.50;;;7.70;96.20;;;;;;5014290;28;20441;-76
2022/12/08 12:23:34;;;;;;;14.03;10.50;;;7.70;95.70;;;;;;5013556;28;20920;-76
2022/12/08 12:26:05;;;;;;;14.00;10.20;;;7.80;95.80;;;;;;5013583;28;20463;-76
2022/12/08 12:28:41;;;;;;;18.47;10.70;;;7.90;95.50;;;;;;5013939;28;20483;-76
2022/12/08 12:31:10;;;;;;;13.27;10.00;;;7.90;95.20;;;;;;5014118;28;20440;-76
2022/12/08 12:33:37;;;;;;;13.47;10.17;;;7.90;95.30;;;;;;5013497;28;20474;-76
2022/12/08 12:36:07;;;;;;;15.97;9.73;;;7.90;95.10;;;;;;5013833;28;20450;-76
2022/12/08 12:41:25;;;;;;;13.47;9.50;;;7.90;94.90;;;;;;5013646;28;20430;-76
2022/12/08 12:44:22;;;;;;;15.57;9.70;;;7.80;94.80;;;;;;5013498;28;20474;-76
2022/12/08 12:46:58;;;;;;;12.00;8.83;;;7.80;94.10;;;;;;5013634;28;20441;-76
2022/12/08 12:50:13;;;;;;;14.33;9.40;;;7.60;94.50;;;;;;5013721;28;20506;-76
2022/12/08 12:52:45;;;;;;;13.80;9.23;;;7.50;94.50;;;;;;5016885;28;20435;-76
2022/12/08 12:55:53;;;;;;;16.60;9.00;;;7.40;94.80;;;;;;5005516;28;20627;-76
2022/12/08 12:58:53;;;;;;;16.23;9.03;;;7.30;94.80;;;;;;4997585;28;20825;-76
2022/12/08 13:01:53;;;;;;;17.00;9.30;;;7.10;95.30;;;;;;4998424;28;20439;-76